Time;durP1;ratioP1;P1;durP2;ratioP2;P2;SDS_P1;SDS_P2;PMS_P1;PMS_P2;Temp;Humidity;BMP_temperature;BMP_pressure;BME280_temperature;BME280_humidity;BME280_pressure;Samples;Min_cycle;Max_cycle;Signal;HPM_P1;HPM_P2
2022/03/18 00:02:21;;;;;;;39.10;18.90;;;;;;;1.42;76.87;101454.25;5054045;28;20286;-64
2022/03/18 00:04:50;;;;;;;34.92;18.65;;;;;;;1.53;77.08;101456.69;5053675;28;20596;-64
2022/03/18 00:07:21;;;;;;;39.53;18.73;;;;;;;1.71;77.59;101461.97;5053872;28;20400;-64
2022/03/18 00:09:51;;;;;;;43.90;20.73;;;;;;;1.78;77.25;101454.91;5053954;28;20073;-64
2022/03/18 00:12:20;;;;;;;41.20;19.88;;;;;;;1.80;76.87;101452.53;5053544;28;20052;-64
2022/03/18 00:14:49;;;;;;;40.78;19.92;;;;;;;1.76;77.13;101466.53;5053542;28;20048;-64
2022/03/18 00:17:18;;;;;;;45.83;21.27;;;;;;;1.82;77.41;101466.06;5053787;28;20079;-64
2022/03/18 00:19:47;;;;;;;43.83;19.13;;;;;;;1.71;76.89;101467.00;5053503;28;20075;-64
2022/03/18 00:22:16;;;;;;;45.20;20.52;;;;;;;1.59;76.52;101466.25;5053788;28;20045;-64
2022/03/18 00:24:45;;;;;;;40.08;18.13;;;;;;;1.62;76.78;101467.31;5053447;28;20500;-64
2022/03/18 00:27:16;;;;;;;43.70;18.47;;;;;;;1.56;76.90;101471.09;5053376;28;20086;-65
2022/03/18 00:29:45;;;;;;;38.70;17.80;;;;;;;1.51;77.34;101480.00;5053689;28;20057;-65
2022/03/18 00:32:13;;;;;;;37.70;18.50;;;;;;;1.58;77.37;101474.59;5053591;28;20045;-64
2022/03/18 00:34:42;;;;;;;44.37;19.97;;;;;;;1.61;77.34;101474.78;5053706;28;20493;-64
2022/03/18 00:37:11;;;;;;;36.03;17.23;;;;;;;1.59;76.76;101471.28;5053316;28;20041;-64
2022/03/18 00:39:40;;;;;;;45.27;19.37;;;;;;;1.61;77.37;101474.78;5053259;28;20360;-64
2022/03/18 00:42:09;;;;;;;39.35;18.45;;;;;;;1.50;77.21;101478.25;5053566;28;20045;-64
2022/03/18 00:44:41;;;;;;;41.42;17.00;;;;;;;1.54;76.81;101472.63;5052079;28;20064;-65
2022/03/18 00:52:33;;;;;;;38.25;19.20;;;;;;;1.72;77.25;101479.72;5054969;28;20092;-64
2022/03/18 00:55:02;;;;;;;39.75;16.90;;;;;;;1.83;77.08;101482.88;5057201;28;20045;-64
2022/03/18 00:57:30;;;;;;;33.03;16.37;;;;;;;1.74;76.91;101482.31;5057146;28;20049;-64
2022/03/18 01:00:01;;;;;;;34.50;16.40;;;;;;;1.88;76.56;101479.03;5057115;28;20095;-64
2022/03/18 01:02:30;;;;;;;35.63;16.92;;;;;;;1.92;76.19;101483.50;5057511;28;20067;-65
2022/03/18 01:04:59;;;;;;;31.55;15.90;;;;;;;1.98;76.68;101479.69;5057040;28;20052;-65
2022/03/18 01:07:30;;;;;;;35.75;16.70;;;;;;;2.00;76.52;101487.34;5057015;28;20049;-64
2022/03/18 01:09:59;;;;;;;37.38;16.75;;;;;;;1.90;76.46;101479.97;5056941;28;20073;-64
2022/03/18 01:12:28;;;;;;;35.90;16.60;;;;;;;1.97;75.73;101487.13;5056891;28;20041;-64
2022/03/18 01:14:57;;;;;;;37.27;15.33;;;;;;;1.98;75.69;101483.84;5057142;28;20110;-65
2022/03/18 01:17:28;;;;;;;26.17;11.95;;;;;;;1.99;75.80;101486.47;5056800;28;20045;-64
2022/03/18 01:19:57;;;;;;;36.05;16.23;;;;;;;1.82;76.15;101476.13;5056764;28;20056;-65
2022/03/18 01:22:26;;;;;;;36.15;16.55;;;;;;;1.74;75.88;101467.22;5056784;28;20048;-64
2022/03/18 01:24:55;;;;;;;31.67;15.40;;;;;;;1.90;76.11;101469.91;5056979;28;20064;-65
2022/03/18 01:27:24;;;;;;;27.60;12.17;;;;;;;1.83;76.01;101477.84;5056803;28;20084;-64
2022/03/18 01:29:53;;;;;;;34.85;15.70;;;;;;;1.59;75.72;101476.31;5056543;28;20116;-64
2022/03/18 01:32:22;;;;;;;32.27;15.33;;;;;;;1.48;75.96;101489.84;5056778;28;20396;-65
2022/03/18 01:34:53;;;;;;;30.27;14.57;;;;;;;1.52;76.76;101479.19;5056519;28;20106;-64
2022/03/18 01:37:22;;;;;;;32.95;15.57;;;;;;;1.50;76.86;101480.75;5056766;28;20115;-65
2022/03/18 01:39:51;;;;;;;36.87;15.90;;;;;;;1.42;76.53;101481.94;5056340;28;20053;-64
2022/03/18 01:42:20;;;;;;;38.47;16.80;;;;;;;1.45;77.25;101482.09;5056713;28;20394;-64
2022/03/18 01:44:49;;;;;;;37.03;17.00;;;;;;;1.44;76.86;101480.38;5056371;28;20056;-64
2022/03/18 01:47:18;;;;;;;28.07;13.17;;;;;;;1.34;77.04;101484.78;5056555;28;20041;-64
2022/03/18 01:49:47;;;;;;;39.77;17.00;;;;;;;1.34;77.71;101481.44;5056424;28;20630;-64
2022/03/18 01:52:17;;;;;;;41.83;16.00;;;;;;;1.46;77.75;101484.75;5056283;28;20273;-65
2022/03/18 01:54:47;;;;;;;33.20;16.15;;;;;;;1.40;77.75;101488.47;5056161;28;20270;-65
2022/03/18 01:57:19;;;;;;;37.55;16.77;;;;;;;1.23;77.10;101484.88;5056101;28;20053;-64
2022/03/18 01:59:49;;;;;;;37.80;16.25;;;;;;;1.16;77.41;101488.63;5056337;28;20040;-64
2022/03/18 02:02:18;;;;;;;32.80;16.90;;;;;;;1.45;77.90;101494.69;5055955;28;20052;-64
2022/03/18 02:04:47;;;;;;;34.60;16.40;;;;;;;1.51;77.22;101490.06;5054818;28;20045;-65
2022/03/18 02:07:18;;;;;;;36.83;16.35;;;;;;;1.45;77.53;101487.13;5056172;28;20068;-64
2022/03/18 02:09:47;;;;;;;32.72;15.68;;;;;;;1.34;77.17;101489.81;5056137;28;20049;-65
2022/03/18 02:12:17;;;;;;;28.55;14.23;;;;;;;1.14;77.83;101495.22;5055692;28;20049;-64
2022/03/18 02:14:47;;;;;;;33.33;16.25;;;;;;;1.03;77.70;101501.16;5055696;28;20044;-65
2022/03/18 02:17:18;;;;;;;33.83;16.45;;;;;;;1.03;78.26;101500.31;5056031;28;20112;-65
2022/03/18 02:19:48;;;;;;;31.02;14.60;;;;;;;0.96;78.17;101504.03;5054770;28;20049;-63
2022/03/18 02:22:20;;;;;;;31.50;14.10;;;;;;;0.87;78.60;101500.91;5055446;28;20047;-64
2022/03/18 02:24:52;;;;;;;31.58;15.88;;;;;;;0.95;78.88;101509.84;5055906;28;20049;-65
2022/03/18 02:27:21;;;;;;;27.08;13.75;;;;;;;1.14;79.39;101510.31;5055423;28;20060;-65
2022/03/18 02:29:50;;;;;;;33.90;16.38;;;;;;;1.42;79.33;101509.59;5055439;28;20041;-65
2022/03/18 02:32:21;;;;;;;32.60;15.87;;;;;;;1.30;78.74;101513.03;5054859;28;20055;-64
2022/03/18 02:34:50;;;;;;;36.85;16.88;;;;;;;1.33;78.84;101513.25;5055308;28;20049;-64
2022/03/18 02:37:18;;;;;;;39.25;17.40;;;;;;;1.41;78.08;101510.34;5055293;28;20041;-64
2022/03/18 02:39:47;;;;;;;36.70;16.88;;;;;;;1.36;78.49;101507.56;5055276;28;20041;-64
2022/03/18 02:42:18;;;;;;;32.20;16.57;;;;;;;1.18;78.21;101506.34;5055661;28;20535;-64
2022/03/18 02:44:48;;;;;;;33.45;16.35;;;;;;;1.28;78.70;101514.59;5055174;28;20099;-64
2022/03/18 02:47:18;;;;;;;34.85;15.90;;;;;;;1.20;78.70;101515.72;5055120;28;20090;-65
2022/03/18 02:49:46;;;;;;;41.63;17.42;;;;;;;1.03;78.64;101518.75;5055042;28;20106;-64
2022/03/18 02:52:15;;;;;;;43.77;17.67;;;;;;;1.13;78.90;101521.13;5055045;28;20073;-64
2022/03/18 02:54:44;;;;;;;35.33;16.38;;;;;;;1.22;79.08;101519.19;5054895;28;20045;-65
2022/03/18 02:57:13;;;;;;;30.57;14.40;;;;;;;1.27;78.62;101522.03;5054926;28;20079;-64
2022/03/18 02:59:43;;;;;;;40.57;17.73;;;;;;;1.28;78.96;101517.09;5055134;28;20286;-65
2022/03/18 03:02:14;;;;;;;38.70;17.10;;;;;;;1.25;78.95;101523.56;5054820;28;20111;-63
2022/03/18 03:10:05;;;;;;;41.58;18.08;;;;;;;1.15;79.18;101522.09;5055096;28;20052;-66
2022/03/18 03:12:34;;;;;;;36.03;16.92;;;;;;;1.08;78.89;101529.16;5054924;28;20041;-65
2022/03/18 03:15:06;;;;;;;32.70;17.23;;;;;;;1.00;78.71;101531.16;5054370;28;20128;-66
2022/03/18 03:17:35;;;;;;;39.45;18.42;;;;;;;0.98;78.55;101526.78;5054642;28;20052;-66
2022/03/18 03:20:04;;;;;;;39.67;17.63;;;;;;;1.00;78.82;101531.16;5054482;28;20041;-66
2022/03/18 03:22:33;;;;;;;37.28;17.52;;;;;;;1.02;78.91;101538.78;5054833;28;20124;-66
2022/03/18 03:25:02;;;;;;;36.17;16.83;;;;;;;0.99;79.03;101539.44;5054215;28;20047;-66
2022/03/18 03:27:31;;;;;;;32.60;16.65;;;;;;;0.99;78.66;101539.44;5054564;28;20485;-66
2022/03/18 03:30:01;;;;;;;27.90;13.02;;;;;;;0.92;79.00;101542.31;5054526;28;20443;-66
2022/03/18 03:32:33;;;;;;;33.85;17.02;;;;;;;0.91;78.80;101545.59;5054305;28;20405;-65
2022/03/18 03:35:02;;;;;;;39.40;16.90;;;;;;;0.87;79.09;101538.63;5054029;28;20041;-66
2022/03/18 03:37:31;;;;;;;38.78;17.75;;;;;;;0.93;79.56;101546.59;5054182;28;20048;-66
2022/03/18 03:40:00;;;;;;;33.70;15.93;;;;;;;0.90;79.13;101546.38;5054376;28;20041;-66
2022/03/18 03:42:28;;;;;;;37.33;17.93;;;;;;;0.74;79.13;101558.69;5054355;28;20033;-66
2022/03/18 03:44:57;;;;;;;34.80;16.58;;;;;;;0.83;79.28;101554.28;5054227;28;20422;-66
2022/03/18 03:47:26;;;;;;;36.90;18.85;;;;;;;0.98;79.23;101560.34;5054286;28;20382;-66
2022/03/18 03:49:57;;;;;;;38.92;17.05;;;;;;;1.01;78.81;101560.53;5054557;28;20484;-66
2022/03/18 03:52:26;;;;;;;33.83;16.75;;;;;;;0.91;78.94;101564.84;5053946;28;20502;-66
2022/03/18 03:54:54;;;;;;;36.90;17.30;;;;;;;0.91;79.05;101574.91;5053757;28;20043;-66
2022/03/18 03:57:23;;;;;;;33.30;16.50;;;;;;;0.80;79.40;101576.66;5053864;28;20500;-65
2022/03/18 03:59:52;;;;;;;36.57;16.43;;;;;;;0.74;79.29;101581.28;5053821;28;20090;-66
2022/03/18 04:02:21;;;;;;;38.13;15.87;;;;;;;0.77;79.46;101581.47;5053761;28;20068;-66
2022/03/18 04:04:51;;;;;;;33.95;16.85;;;;;;;0.80;80.00;101576.66;5053655;28;20053;-66
2022/03/18 04:07:22;;;;;;;33.85;16.92;;;;;;;0.87;79.94;101582.97;5053993;28;20052;-65
2022/03/18 04:09:53;;;;;;;35.13;16.40;;;;;;;0.88;80.12;101585.63;5053746;28;20126;-66
2022/03/18 04:12:23;;;;;;;31.25;16.02;;;;;;;0.92;80.07;101585.03;5053639;28;20073;-65
2022/03/18 04:14:52;;;;;;;40.28;18.42;;;;;;;0.84;79.76;101588.66;5054021;28;20140;-65
2022/03/18 04:17:22;;;;;;;39.45;18.83;;;;;;;0.83;79.68;101586.94;5053563;28;20064;-66
2022/03/18 04:19:51;;;;;;;38.97;18.05;;;;;;;0.80;79.61;101590.88;5052319;28;20519;-65
2022/03/18 04:22:22;;;;;;;37.65;17.65;;;;;;;0.87;80.13;101588.00;5053757;28;20501;-66
2022/03/18 04:24:51;;;;;;;43.40;18.60;;;;;;;0.80;80.15;101595.91;5053475;28;20087;-65
2022/03/18 04:27:21;;;;;;;38.88;17.70;;;;;;;0.82;80.40;101600.25;5052728;28;20061;-65
2022/03/18 04:29:49;;;;;;;39.47;18.20;;;;;;;0.98;80.45;101603.06;5053398;28;20044;-66
2022/03/18 04:32:18;;;;;;;30.20;13.65;;;;;;;0.99;79.95;101609.81;5053688;28;20041;-65
2022/03/18 04:34:47;;;;;;;35.07;17.53;;;;;;;1.10;80.13;101601.38;5053239;28;20071;-65
2022/03/18 04:37:16;;;;;;;24.02;12.75;;;;;;;1.14;80.16;101588.25;5053280;28;20045;-66
2022/03/18 04:39:46;;;;;;;35.72;16.63;;;;;;;1.22;80.08;101609.72;5053563;28;20408;-66
2022/03/18 04:42:15;;;;;;;37.60;16.70;;;;;;;1.01;80.07;101608.28;5053284;28;20489;-66
2022/03/18 04:44:44;;;;;;;41.03;16.60;;;;;;;0.85;79.68;101615.56;5053232;28;20045;-66
2022/03/18 04:47:13;;;;;;;47.30;20.20;;;;;;;0.81;80.21;101605.19;5053434;28;20040;-66
2022/03/18 04:49:42;;;;;;;43.55;19.13;;;;;;;0.85;79.86;101620.59;5053100;28;20282;-65
2022/03/18 04:52:12;;;;;;;35.37;15.43;;;;;;;0.86;79.89;101624.84;5053433;28;20029;-66
2022/03/18 04:54:41;;;;;;;40.55;18.77;;;;;;;0.89;80.51;101632.59;5053047;28;20288;-65
2022/03/18 04:57:18;;;;;;;35.55;17.25;;;;;;;1.07;80.06;101628.84;5053178;28;20068;-66
2022/03/18 04:59:51;;;;;;;37.47;18.40;;;;;;;1.12;80.74;101637.56;5053131;28;20497;-66
2022/03/18 05:02:21;;;;;;;36.30;17.75;;;;;;;1.10;80.31;101639.09;5053105;28;20102;-66
2022/03/18 05:04:51;;;;;;;33.80;16.30;;;;;;;1.13;80.11;101640.91;5053449;28;20184;-66
2022/03/18 05:07:20;;;;;;;36.78;16.75;;;;;;;1.17;80.38;101640.38;5053301;28;20115;-66
2022/03/18 05:09:49;;;;;;;34.53;17.25;;;;;;;1.15;80.43;101637.75;5052916;28;20048;-65
2022/03/18 05:12:20;;;;;;;31.70;14.60;;;;;;;1.09;79.98;101639.84;5053555;28;20041;-65
2022/03/18 05:14:54;;;;;;;29.13;15.38;;;;;;;1.08;80.50;101624.69;5052928;28;20048;-66
2022/03/18 05:17:23;;;;;;;33.35;14.98;;;;;;;1.16;80.67;101639.50;5053029;28;20110;-65
2022/03/18 05:19:52;;;;;;;28.92;13.98;;;;;;;1.27;80.32;101638.56;5051843;28;20083;-65
2022/03/18 05:22:22;;;;;;;33.85;15.13;;;;;;;1.29;80.28;101647.13;5053213;28;20057;-66
2022/03/18 05:24:52;;;;;;;29.87;12.17;;;;;;;1.27;79.96;101648.63;5053161;28;20123;-65
2022/03/18 05:27:23;;;;;;;37.22;16.15;;;;;;;1.26;80.84;101649.44;5052645;28;20290;-65
2022/03/18 05:29:52;;;;;;;31.40;14.52;;;;;;;1.29;80.55;101649.63;5052892;28;20139;-66
2022/03/18 05:32:21;;;;;;;34.53;15.65;;;;;;;1.37;80.80;101654.31;5052776;28;20489;-65
2022/03/18 05:34:50;;;;;;;34.60;16.00;;;;;;;1.50;80.42;101656.88;5052727;28;20508;-65
2022/03/18 05:37:19;;;;;;;30.35;15.38;;;;;;;1.60;80.40;101659.22;5052765;28;20045;-66
2022/03/18 05:39:48;;;;;;;34.80;15.97;;;;;;;1.47;80.66;101656.66;5055941;28;20099;-65
2022/03/18 05:42:16;;;;;;;30.73;15.33;;;;;;;1.54;80.49;101656.28;5056873;28;20041;-65
2022/03/18 05:44:47;;;;;;;36.63;16.97;;;;;;;1.65;81.04;101657.88;5056639;28;20064;-66
2022/03/18 05:47:16;;;;;;;41.92;16.45;;;;;;;1.83;80.35;101659.09;5056598;28;20133;-66
2022/03/18 05:49:46;;;;;;;32.40;16.08;;;;;;;1.98;80.65;101660.09;5056159;28;20506;-65
2022/03/18 05:52:15;;;;;;;35.35;15.05;;;;;;;2.12;80.48;101658.47;5056519;28;20051;-66
2022/03/18 05:54:43;;;;;;;31.48;15.18;;;;;;;2.14;79.94;101659.44;5056343;28;20076;-65
2022/03/18 05:57:12;;;;;;;31.15;15.25;;;;;;;2.09;79.76;101669.22;5056109;28;20048;-66
2022/03/18 05:59:41;;;;;;;39.00;16.02;;;;;;;1.83;79.58;101674.19;5055911;28;20065;-66
2022/03/18 06:02:12;;;;;;;35.33;15.18;;;;;;;1.83;79.63;101674.19;5056310;28;20068;-66
2022/03/18 06:04:42;;;;;;;30.25;14.68;;;;;;;1.95;79.83;101680.91;5056225;28;20115;-65
2022/03/18 06:07:11;;;;;;;33.63;16.75;;;;;;;2.12;79.98;101674.47;5055922;28;20053;-65
2022/03/18 06:12:18;;;;;;;37.22;16.08;;;;;;;2.04;79.75;101685.66;5055891;28;20056;-65
2022/03/18 06:14:47;;;;;;;33.13;16.23;;;;;;;2.11;80.10;101695.41;5055625;28;20042;-65
2022/03/18 06:17:17;;;;;;;37.95;17.15;;;;;;;2.23;79.68;101701.19;5057121;28;20412;-65
2022/03/18 06:19:47;;;;;;;34.47;17.70;;;;;;;2.23;79.09;101693.63;5055996;28;20044;-65
2022/03/18 06:22:15;;;;;;;38.60;17.50;;;;;;;2.24;79.27;101695.41;5055580;28;20049;-66
2022/03/18 06:24:44;;;;;;;43.53;20.15;;;;;;;2.18;79.18;101700.06;5056062;28;20047;-65
2022/03/18 06:27:13;;;;;;;52.27;22.37;;;;;;;2.05;79.16;101702.53;5055423;28;20045;-66
2022/03/18 06:29:43;;;;;;;46.83;21.57;;;;;;;2.07;79.41;101721.13;5055699;28;20278;-65
2022/03/18 06:32:12;;;;;;;42.53;20.83;;;;;;;2.03;79.34;101714.16;5055721;28;20270;-65
2022/03/18 06:34:43;;;;;;;41.53;20.15;;;;;;;2.02;79.31;101710.75;5055424;28;20076;-65
2022/03/18 06:37:12;;;;;;;38.70;17.65;;;;;;;2.17;79.12;101728.53;5055331;28;20080;-65
2022/03/18 06:39:41;;;;;;;38.27;17.90;;;;;;;2.34;79.32;101730.50;5055250;28;20102;-65
2022/03/18 06:42:11;;;;;;;36.90;16.63;;;;;;;2.33;79.27;101726.22;5055706;28;20053;-65
2022/03/18 06:44:40;;;;;;;37.73;16.80;;;;;;;2.52;78.99;101739.22;5055111;28;20048;-66
2022/03/18 06:47:09;;;;;;;37.55;16.90;;;;;;;2.65;78.83;101736.72;5055090;28;20045;-65
2022/03/18 06:49:37;;;;;;;43.03;18.23;;;;;;;2.76;78.85;101734.88;5054693;28;20087;-65
2022/03/18 06:52:08;;;;;;;38.15;18.13;;;;;;;2.90;79.20;101743.31;5054760;28;20178;-65
2022/03/18 06:54:37;;;;;;;40.67;18.95;;;;;;;2.79;78.48;101740.13;5054990;28;20099;-65
2022/03/18 06:57:06;;;;;;;28.33;12.77;;;;;;;2.76;78.34;101747.47;5054925;28;20044;-65
2022/03/18 06:59:36;;;;;;;37.67;17.48;;;;;;;2.65;78.45;101751.84;5055463;28;20441;-65
2022/03/18 07:02:05;;;;;;;37.20;19.00;;;;;;;2.78;79.24;101757.69;5055449;28;20044;-65
2022/03/18 07:04:34;;;;;;;;;;;;;;;3.01;78.96;101762.50;5055437;28;20282;-65
2022/03/18 07:07:03;;;;;;;36.28;17.27;;;;;;;3.08;78.91;101759.59;5055051;28;19928;-65
2022/03/18 07:09:36;;;;;;;40.72;20.27;;;;;;;3.14;78.75;101765.03;5054601;28;20049;-65
2022/03/18 07:12:06;;;;;;;38.75;17.67;;;;;;;3.24;79.54;101767.31;5055003;28;20045;-65
2022/03/18 07:14:36;;;;;;;38.25;18.60;;;;;;;3.07;79.38;101768.81;5054872;28;20057;-65
2022/03/18 07:19:54;;;;;;;41.97;17.80;;;;;;;3.40;79.63;101775.06;5029528;28;20052;-65
2022/03/18 07:22:25;;;;;;;35.90;17.33;;;;;;;3.48;79.07;101781.44;5054374;28;20037;-65
2022/03/18 07:24:56;;;;;;;31.45;17.23;;;;;;;3.61;79.63;101786.47;5054799;28;20045;-65
2022/03/18 07:27:25;;;;;;;36.10;16.77;;;;;;;3.52;78.81;101785.94;5054231;28;20083;-65
2022/03/18 07:29:54;;;;;;;33.93;17.77;;;;;;;3.46;78.66;101790.59;5054299;28;20378;-64
2022/03/18 07:32:23;;;;;;;35.87;17.23;;;;;;;3.38;78.59;101792.63;5054372;28;20037;-65
2022/03/18 07:34:51;;;;;;;31.47;16.57;;;;;;;3.56;78.81;101790.38;5054936;28;20063;-65
2022/03/18 07:37:20;;;;;;;40.75;17.88;;;;;;;3.77;79.19;101799.25;5054414;28;20359;-65
2022/03/18 07:39:49;;;;;;;33.70;17.17;;;;;;;3.92;78.60;101799.28;5053950;28;20041;-65
2022/03/18 07:42:19;;;;;;;38.77;18.10;;;;;;;3.90;78.11;101799.22;5054099;28;20041;-65
2022/03/18 07:44:48;;;;;;;31.13;15.77;;;;;;;3.80;77.50;101809.53;5053973;28;20069;-64
2022/03/18 07:47:17;;;;;;;27.33;12.17;;;;;;;3.99;78.38;101817.44;5053885;28;20400;-66
2022/03/18 07:49:46;;;;;;;31.97;17.33;;;;;;;4.06;77.80;101813.63;5054182;28;20075;-65
2022/03/18 07:52:15;;;;;;;33.25;17.00;;;;;;;4.19;77.30;101815.22;5054172;28;20087;-65
2022/03/18 07:54:44;;;;;;;34.43;16.73;;;;;;;4.40;77.49;101821.53;5053307;28;20045;-69
2022/03/18 07:57:13;;;;;;;34.85;17.60;;;;;;;4.57;77.16;101828.44;5073057;28;20346;-65
2022/03/18 07:59:43;;;;;;;35.93;17.20;;;;;;;4.61;76.38;101827.81;5073655;28;20068;-65
2022/03/18 08:02:12;;;;;;;37.25;18.55;;;;;;;4.74;76.50;101832.81;5073189;28;20044;-65
2022/03/18 08:04:41;;;;;;;35.97;17.23;;;;;;;4.90;76.42;101832.88;5073593;28;20044;-65
2022/03/18 08:07:10;;;;;;;35.38;18.00;;;;;;;4.89;76.34;101831.16;5073793;28;20408;-64
2022/03/18 08:09:40;;;;;;;;;;;;;;;5.01;75.11;101841.09;5073926;28;20083;-65
2022/03/18 08:12:09;;;;;;;35.97;16.48;;;;;;;5.20;74.97;101839.66;5074015;28;20280;-65
2022/03/18 08:14:39;;;;;;;37.80;17.45;;;;;;;5.20;74.55;101839.66;5073927;28;20116;-65
2022/03/18 08:17:10;;;;;;;32.22;16.15;;;;;;;5.46;74.47;101842.72;5066979;28;20049;-65
2022/03/18 08:19:39;;;;;;;28.52;15.60;;;;;;;5.52;74.36;101835.47;5060228;28;20147;-65
2022/03/18 08:22:08;;;;;;;30.50;15.02;;;;;;;5.67;74.22;101842.22;5053771;28;20052;-65
2022/03/18 08:24:38;;;;;;;32.30;15.82;;;;;;;5.77;73.43;101831.81;5053585;28;20044;-65
2022/03/18 08:27:07;;;;;;;30.50;15.68;;;;;;;5.93;72.86;101828.44;5052845;28;20053;-66
2022/03/18 08:29:36;;;;;;;33.65;16.42;;;;;;;6.09;72.10;101846.19;5068867;28;20539;-66
2022/03/18 08:32:06;;;;;;;35.90;17.97;;;;;;;5.89;73.03;101846.81;5053622;28;20083;-65
2022/03/18 08:34:37;;;;;;;37.17;17.73;;;;;;;5.73;73.62;101854.38;5085737;28;20055;-65
2022/03/18 08:37:06;;;;;;;38.42;19.02;;;;;;;5.62;74.25;101852.91;5071581;28;20059;-65
2022/03/18 08:39:35;;;;;;;35.30;18.00;;;;;;;5.64;74.33;101858.94;5073211;28;20048;-65
2022/03/18 08:42:05;;;;;;;34.03;18.30;;;;;;;5.92;73.99;101854.59;5073520;28;20060;-65
2022/03/18 08:44:35;;;;;;;41.13;18.98;;;;;;;6.19;73.26;101853.47;5073398;28;20550;-65
2022/03/18 08:47:04;;;;;;;32.53;17.27;;;;;;;6.37;72.26;101859.50;5073232;28;20041;-65
2022/03/18 08:49:33;;;;;;;36.60;17.73;;;;;;;6.64;71.40;101852.41;5073353;28;20040;-65
2022/03/18 08:52:03;;;;;;;32.83;16.47;;;;;;;6.69;71.33;101854.34;5073044;28;20478;-65
2022/03/18 08:54:33;;;;;;;34.65;17.35;;;;;;;6.92;70.26;101863.13;5065519;28;20047;-64
2022/03/18 08:57:01;;;;;;;35.15;17.73;;;;;;;7.02;69.87;101860.22;5052955;28;20060;-65
2022/03/18 08:59:31;;;;;;;31.85;16.65;;;;;;;7.16;68.79;101858.34;5056898;28;20072;-65
2022/03/18 09:02:00;;;;;;;27.43;15.60;;;;;;;7.48;67.44;101863.28;5071960;28;20064;-65
2022/03/18 09:04:29;;;;;;;27.38;13.30;;;;;;;7.88;65.91;101861.75;5072978;28;20538;-65
2022/03/18 09:06:59;;;;;;;30.47;12.83;;;;;;;8.08;63.31;101858.44;5069984;28;20041;-65
2022/03/18 09:09:29;;;;;;;28.70;13.48;;;;;;;8.31;60.96;101871.31;5053197;28;20098;-65
2022/03/18 09:11:58;;;;;;;22.85;12.30;;;;;;;8.43;59.15;101870.16;5062796;28;20068;-65
2022/03/18 09:14:27;;;;;;;24.48;11.95;;;;;;;8.61;57.92;101870.09;5075196;28;20074;-66
2022/03/18 09:16:57;;;;;;;21.45;10.80;;;;;;;8.55;55.76;101865.59;5076490;28;20480;-66
2022/03/18 09:19:26;;;;;;;24.20;10.82;;;;;;;8.43;53.79;101872.72;5065215;28;20047;-66
2022/03/18 09:21:55;;;;;;;20.63;10.45;;;;;;;8.38;51.97;101873.31;5074005;28;20102;-65
2022/03/18 09:24:24;;;;;;;23.73;11.18;;;;;;;8.64;52.57;101876.16;5076350;28;20037;-66
2022/03/18 09:26:54;;;;;;;21.03;10.57;;;;;;;8.89;52.36;101878.06;5073338;28;20123;-65
2022/03/18 09:29:25;;;;;;;18.67;9.68;;;;;;;9.01;51.23;101873.47;5075342;28;20277;-65
2022/03/18 09:31:54;;;;;;;21.85;9.43;;;;;;;9.05;50.25;101870.25;5076284;28;20533;-65
2022/03/18 09:34:24;;;;;;;15.40;8.48;;;;;;;9.20;50.16;101881.06;5076012;28;20040;-65
2022/03/18 09:36:53;;;;;;;;;;;;;;;9.36;50.02;101878.28;5072251;28;20037;-65
2022/03/18 09:39:23;;;;;;;16.75;9.52;;;;;;;9.40;49.19;101884.41;5074693;28;19974;-65
2022/03/18 09:41:53;;;;;;;15.95;9.35;;;;;;;9.38;49.88;101884.31;5064843;28;20436;-65
2022/03/18 09:44:23;;;;;;;17.25;9.23;;;;;;;9.49;49.62;101868.56;5065221;28;20052;-65
2022/03/18 09:46:57;;;;;;;17.70;9.43;;;;;;;9.83;49.05;101881.81;5073616;28;20090;-65
2022/03/18 09:49:26;;;;;;;18.77;9.88;;;;;;;9.98;46.99;101885.78;5075887;28;20045;-65
2022/03/18 09:51:55;;;;;;;20.02;9.88;;;;;;;10.07;46.93;101878.50;5076117;28;20040;-65
2022/03/18 09:54:28;;;;;;;20.23;10.07;;;;;;;10.60;46.43;101880.44;5076327;28;20053;-65
2022/03/18 09:56:57;;;;;;;18.83;9.45;;;;;;;11.15;45.54;101884.81;5076058;28;20056;-65
2022/03/18 09:59:28;;;;;;;20.42;10.13;;;;;;;11.25;44.89;101886.84;5074696;28;20565;-68
2022/03/18 10:02:18;;;;;;;20.38;9.32;;;;;;;11.40;44.06;101893.28;5076137;28;20049;-65
2022/03/18 10:04:55;;;;;;;17.90;9.75;;;;;;;11.20;42.39;101894.38;5075360;28;20052;-65
2022/03/18 10:07:25;;;;;;;16.88;9.68;;;;;;;11.25;43.50;101891.97;5075559;28;20068;-65
2022/03/18 10:10:10;;;;;;;22.40;10.65;;;;;;;11.01;43.39;101899.69;5076143;28;20489;-65
2022/03/18 10:12:40;;;;;;;17.45;9.77;;;;;;;10.81;43.19;101897.28;5075826;28;20058;-65
2022/03/18 10:15:16;;;;;;;21.65;10.98;;;;;;;10.82;43.26;101899.03;5075730;28;20059;-65
2022/03/18 10:17:48;;;;;;;20.02;10.23;;;;;;;11.07;44.13;101894.78;5075575;28;20068;-66
2022/03/18 10:20:29;;;;;;;17.77;10.18;;;;;;;11.44;43.65;101899.38;5074677;28;20131;-66
2022/03/18 10:23:03;;;;;;;18.02;9.15;;;;;;;11.72;43.39;101899.44;5074134;28;20097;-66
2022/03/18 10:25:37;;;;;;;16.45;9.73;;;;;;;11.25;43.57;101897.06;5071828;28;20135;-65
2022/03/18 10:28:07;;;;;;;18.95;9.85;;;;;;;11.56;43.34;101893.78;5066351;28;20647;-66
2022/03/18 10:30:38;;;;;;;;;;;;;;;11.65;42.83;101894.94;5063738;28;20041;-65
2022/03/18 10:33:13;;;;;;;19.35;10.18;;;;;;;11.63;42.93;101894.03;5066265;28;19921;-65
2022/03/18 10:38:28;;;;;;;16.88;9.63;;;;;;;11.75;41.72;101894.44;5055178;28;20080;-65
2022/03/18 10:40:59;;;;;;;17.92;9.02;;;;;;;11.62;42.65;101897.38;5055584;28;20072;-65
2022/03/18 10:43:28;;;;;;;20.30;10.43;;;;;;;12.13;42.70;101894.66;5055659;28;20110;-65
2022/03/18 10:46:05;;;;;;;19.75;11.02;;;;;;;12.15;42.28;101878.53;5055295;28;20071;-65
2022/03/18 10:48:34;;;;;;;23.10;10.57;;;;;;;12.39;41.28;101894.56;5055235;28;20083;-65
2022/03/18 10:51:07;;;;;;;20.23;10.80;;;;;;;12.52;41.34;101890.66;5055054;28;20049;-65
2022/03/18 10:53:37;;;;;;;19.58;9.65;;;;;;;12.78;40.67;101899.88;5074837;28;20062;-65
2022/03/18 10:56:08;;;;;;;20.40;10.73;;;;;;;12.82;40.15;101896.56;5075045;28;20045;-65
2022/03/18 10:58:39;;;;;;;18.27;11.05;;;;;;;12.82;41.47;101891.44;5075327;28;20392;-65
2022/03/18 11:01:11;;;;;;;18.27;9.95;;;;;;;12.01;40.93;101896.06;5074905;28;20048;-65
2022/03/18 11:03:41;;;;;;;16.20;9.38;;;;;;;11.39;41.76;101888.16;5074798;28;20048;-65
2022/03/18 11:06:11;;;;;;;20.75;10.68;;;;;;;11.23;42.29;101888.44;5075361;28;20080;-65
2022/03/18 11:08:43;;;;;;;;;;;;;;;11.39;43.60;101893.25;5075035;28;20056;-65
2022/03/18 11:11:18;;;;;;;18.98;10.48;;;;;;;11.11;42.97;101882.97;5074644;28;19974;-65
2022/03/18 11:13:52;;;;;;;20.60;10.35;;;;;;;11.23;43.96;101888.44;5074700;28;20079;-65
2022/03/18 11:16:25;;;;;;;21.30;10.80;;;;;;;11.04;43.92;101888.69;5073724;28;20094;-65
2022/03/18 11:18:55;;;;;;;22.17;10.68;;;;;;;11.27;44.16;101890.31;5074525;28;20036;-65
2022/03/18 11:21:35;;;;;;;20.25;10.38;;;;;;;11.46;43.85;101879.84;5073733;28;20047;-66
2022/03/18 11:24:06;;;;;;;21.05;10.32;;;;;;;10.99;43.06;101882.59;5074211;28;20043;-65
2022/03/18 11:26:36;;;;;;;20.77;10.80;;;;;;;11.16;43.59;101881.41;5074191;28;20056;-66
2022/03/18 11:29:10;;;;;;;19.05;10.68;;;;;;;11.26;43.96;101869.00;5074513;28;20091;-66
2022/03/18 11:31:43;;;;;;;18.48;10.52;;;;;;;11.21;43.56;101874.75;5074260;28;20057;-66
2022/03/18 11:34:17;;;;;;;19.40;9.55;;;;;;;11.14;43.92;101877.94;5073494;28;20553;-66
2022/03/18 11:36:47;;;;;;;18.30;9.80;;;;;;;11.49;44.44;101872.28;5073993;28;20045;-66
2022/03/18 11:39:21;;;;;;;20.30;10.75;;;;;;;11.54;44.04;101870.69;5074105;28;20549;-66
2022/03/18 11:41:55;;;;;;;20.30;10.45;;;;;;;11.56;43.85;101874.19;5074248;28;20047;-66
2022/03/18 11:44:39;;;;;;;19.98;10.38;;;;;;;11.79;43.32;101868.09;5074257;28;20122;-66
2022/03/18 11:47:30;;;;;;;20.63;11.50;;;;;;;12.30;43.92;101878.09;5066786;28;20041;-66
2022/03/18 11:50:38;;;;;;;22.77;11.73;;;;;;;12.72;43.18;101871.53;5070346;28;20106;-66